sensor_id;sensor_type;location;lat;lon;timestamp;temperature;humidity
54409;DHT22;40315;48.620;9.828;2022-09-13T00:01:14;12.30;99.90
54409;DHT22;40315;48.620;9.828;2022-09-13T00:03:43;12.30;99.90
54409;DHT22;40315;48.620;9.828;2022-09-13T00:06:12;12.30;99.90
54409;DHT22;40315;48.620;9.828;2022-09-13T00:08:42;12.20;99.90
54409;DHT22;40315;48.620;9.828;2022-09-13T00:11:14;12.20;99.90
54409;DHT22;40315;48.620;9.828;2022-09-13T00:13:44;12.20;99.90
54409;DHT22;40315;48.620;9.828;2022-09-13T00:16:13;12.10;99.90
54409;DHT22;40315;48.620;9.828;2022-09-13T00:18:42;12.10;99.90
54409;DHT22;40315;48.620;9.828;2022-09-13T00:21:12;12.10;99.90
54409;DHT22;40315;48.620;9.828;2022-09-13T00:23:39;12.00;99.90
54409;DHT22;40315;48.620;9.828;2022-09-13T00:26:09;12.00;99.90
54409;DHT22;40315;48.620;9.828;2022-09-13T00:28:36;12.10;99.90
54409;DHT22;40315;48.620;9.828;2022-09-13T00:31:05;12.10;99.90
54409;DHT22;40315;48.620;9.828;2022-09-13T00:33:33;12.00;99.90
54409;DHT22;40315;48.620;9.828;2022-09-13T00:36:04;12.00;99.90
54409;DHT22;40315;48.620;9.828;2022-09-13T00:38:33;12.10;99.90
54409;DHT22;40315;48.620;9.828;2022-09-13T00:41:01;12.10;99.90
54409;DHT22;40315;48.620;9.828;2022-09-13T00:43:43;12.10;99.90
54409;DHT22;40315;48.620;9.828;2022-09-13T00:46:13;12.10;99.90
54409;DHT22;40315;48.620;9.828;2022-09-13T00:48:44;12.10;99.90
54409;DHT22;40315;48.620;9.828;2022-09-13T00:51:13;12.10;99.90
54409;DHT22;40315;48.620;9.828;2022-09-13T00:53:43;12.10;99.90
54409;DHT22;40315;48.620;9.828;2022-09-13T00:56:16;12.10;99.90
54409;DHT22;40315;48.620;9.828;2022-09-13T00:58:49;12.10;99.90
54409;DHT22;40315;48.620;9.828;2022-09-13T01:04:02;12.10;99.90
54409;DHT22;40315;48.620;9.828;2022-09-13T01:06:33;12.10;99.90
54409;DHT22;40315;48.620;9.828;2022-09-13T01:09:02;12.10;99.90
54409;DHT22;40315;48.620;9.828;2022-09-13T01:11:38;12.10;99.90
54409;DHT22;40315;48.620;9.828;2022-09-13T01:14:07;12.10;99.90
54409;DHT22;40315;48.620;9.828;2022-09-13T01:16:37;12.10;99.90
54409;DHT22;40315;48.620;9.828;2022-09-13T01:19:07;12.10;99.90
54409;DHT22;40315;48.620;9.828;2022-09-13T01:22:05;12.00;99.90
54409;DHT22;40315;48.620;9.828;2022-09-13T01:28:16;12.00;99.90
54409;DHT22;40315;48.620;9.828;2022-09-13T01:30:49;12.10;99.90
54409;DHT22;40315;48.620;9.828;2022-09-13T01:33:43;12.00;99.90
54409;DHT22;40315;48.620;9.828;2022-09-13T01:36:43;12.00;99.90
54409;DHT22;40315;48.620;9.828;2022-09-13T01:39:24;11.90;99.90
54409;DHT22;40315;48.620;9.828;2022-09-13T01:45:33;12.00;99.90
54409;DHT22;40315;48.620;9.828;2022-09-13T01:48:11;12.10;99.90
54409;DHT22;40315;48.620;9.828;2022-09-13T01:50:43;12.10;99.90
54409;DHT22;40315;48.620;9.828;2022-09-13T01:53:21;12.10;99.90
54409;DHT22;40315;48.620;9.828;2022-09-13T01:55:57;12.00;99.90
54409;DHT22;40315;48.620;9.828;2022-09-13T01:58:34;11.90;99.90
54409;DHT22;40315;48.620;9.828;2022-09-13T02:01:10;11.90;99.90
54409;DHT22;40315;48.620;9.828;2022-09-13T02:03:48;11.90;99.90
54409;DHT22;40315;48.620;9.828;2022-09-13T02:06:29;11.90;99.90
54409;DHT22;40315;48.620;9.828;2022-09-13T02:08:58;11.90;99.90
54409;DHT22;40315;48.620;9.828;2022-09-13T02:11:32;11.90;99.90
54409;DHT22;40315;48.620;9.828;2022-09-13T02:14:05;11.80;99.90
54409;DHT22;40315;48.620;9.828;2022-09-13T02:16:36;11.70;99.90
54409;DHT22;40315;48.620;9.828;2022-09-13T02:19:09;11.70;99.90
54409;DHT22;40315;48.620;9.828;2022-09-13T02:21:41;11.70;99.90
54409;DHT22;40315;48.620;9.828;2022-09-13T02:24:12;11.70;99.90
54409;DHT22;40315;48.620;9.828;2022-09-13T02:26:46;11.80;99.90
54409;DHT22;40315;48.620;9.828;2022-09-13T02:29:20;10.20;99.90
54409;DHT22;40315;48.620;9.828;2022-09-13T02:31:55;11.80;99.90
54409;DHT22;40315;48.620;9.828;2022-09-13T02:34:32;11.80;99.90
54409;DHT22;40315;48.620;9.828;2022-09-13T02:37:06;11.80;99.90
54409;DHT22;40315;48.620;9.828;2022-09-13T02:39:37;11.90;99.90
54409;DHT22;40315;48.620;9.828;2022-09-13T02:42:11;11.80;99.90
54409;DHT22;40315;48.620;9.828;2022-09-13T02:44:44;11.70;99.90
54409;DHT22;40315;48.620;9.828;2022-09-13T02:47:20;11.50;99.90
54409;DHT22;40315;48.620;9.828;2022-09-13T02:49:59;11.40;99.90
54409;DHT22;40315;48.620;9.828;2022-09-13T02:52:40;11.50;99.90
54409;DHT22;40315;48.620;9.828;2022-09-13T02:55:17;11.10;99.90
54409;DHT22;40315;48.620;9.828;2022-09-13T02:57:58;11.50;99.90
54409;DHT22;40315;48.620;9.828;2022-09-13T03:00:26;11.60;99.90
54409;DHT22;40315;48.620;9.828;2022-09-13T03:03:06;11.50;99.90
54409;DHT22;40315;48.620;9.828;2022-09-13T03:05:38;11.50;99.90
54409;DHT22;40315;48.620;9.828;2022-09-13T03:08:09;11.50;99.90
54409;DHT22;40315;48.620;9.828;2022-09-13T03:10:44;11.40;99.90
54409;DHT22;40315;48.620;9.828;2022-09-13T03:16:28;11.20;99.90
54409;DHT22;40315;48.620;9.828;2022-09-13T03:19:13;11.20;99.90
54409;DHT22;40315;48.620;9.828;2022-09-13T03:21:59;11.20;99.90
54409;DHT22;40315;48.620;9.828;2022-09-13T03:24:36;11.30;99.90
54409;DHT22;40315;48.620;9.828;2022-09-13T03:27:18;11.30;99.90
54409;DHT22;40315;48.620;9.828;2022-09-13T03:29:54;11.40;99.90
54409;DHT22;40315;48.620;9.828;2022-09-13T03:32:29;11.40;99.90
54409;DHT22;40315;48.620;9.828;2022-09-13T03:35:08;11.30;99.90
54409;DHT22;40315;48.620;9.828;2022-09-13T03:37:45;11.30;99.90
54409;DHT22;40315;48.620;9.828;2022-09-13T03:40:17;11.30;99.90
54409;DHT22;40315;48.620;9.828;2022-09-13T03:42:52;11.30;99.90
54409;DHT22;40315;48.620;9.828;2022-09-13T03:45:25;11.40;99.90
54409;DHT22;40315;48.620;9.828;2022-09-13T03:47:56;11.30;99.90
54409;DHT22;40315;48.620;9.828;2022-09-13T03:50:26;11.30;99.90
54409;DHT22;40315;48.620;9.828;2022-09-13T03:52:59;11.30;99.90
54409;DHT22;40315;48.620;9.828;2022-09-13T03:55:32;11.20;99.90
54409;DHT22;40315;48.620;9.828;2022-09-13T03:57:59;11.10;99.90
54409;DHT22;40315;48.620;9.828;2022-09-13T04:00:27;11.10;99.90
54409;DHT22;40315;48.620;9.828;2022-09-13T04:03:02;11.10;99.90
54409;DHT22;40315;48.620;9.828;2022-09-13T04:05:30;14.00;99.90
54409;DHT22;40315;48.620;9.828;2022-09-13T04:07:59;11.00;99.90
54409;DHT22;40315;48.620;9.828;2022-09-13T04:10:27;11.00;99.90
54409;DHT22;40315;48.620;9.828;2022-09-13T04:12:56;11.00;99.90
54409;DHT22;40315;48.620;9.828;2022-09-13T04:15:28;11.00;99.90
54409;DHT22;40315;48.620;9.828;2022-09-13T04:17:55;10.90;99.90
54409;DHT22;40315;48.620;9.828;2022-09-13T04:20:23;11.00;99.90
54409;DHT22;40315;48.620;9.828;2022-09-13T04:22:53;11.00;99.90
54409;DHT22;40315;48.620;9.828;2022-09-13T04:25:22;11.00;99.90
54409;DHT22;40315;48.620;9.828;2022-09-13T04:27:53;11.00;99.90
54409;DHT22;40315;48.620;9.828;2022-09-13T04:30:20;11.10;99.90
54409;DHT22;40315;48.620;9.828;2022-09-13T04:32:48;11.10;99.90
54409;DHT22;40315;48.620;9.828;2022-09-13T04:35:15;10.90;99.90
54409;DHT22;40315;48.620;9.828;2022-09-13T04:37:44;10.90;99.90
54409;DHT22;40315;48.620;9.828;2022-09-13T04:40:12;10.90;99.90
54409;DHT22;40315;48.620;9.828;2022-09-13T04:42:40;10.90;99.90
54409;DHT22;40315;48.620;9.828;2022-09-13T04:45:10;10.80;99.90
54409;DHT22;40315;48.620;9.828;2022-09-13T04:47:37;10.90;99.90
54409;DHT22;40315;48.620;9.828;2022-09-13T04:50:05;11.00;99.90
54409;DHT22;40315;48.620;9.828;2022-09-13T04:52:33;11.10;99.90
54409;DHT22;40315;48.620;9.828;2022-09-13T04:55:02;11.00;99.90
54409;DHT22;40315;48.620;9.828;2022-09-13T04:57:29;11.00;99.90
54409;DHT22;40315;48.620;9.828;2022-09-13T04:59:58;11.00;99.90
54409;DHT22;40315;48.620;9.828;2022-09-13T05:02:25;11.00;99.90
54409;DHT22;40315;48.620;9.828;2022-09-13T05:04:54;10.90;99.90
54409;DHT22;40315;48.620;9.828;2022-09-13T05:07:21;11.00;99.90
54409;DHT22;40315;48.620;9.828;2022-09-13T05:09:51;11.00;99.90
54409;DHT22;40315;48.620;9.828;2022-09-13T05:12:18;11.10;99.90
54409;DHT22;40315;48.620;9.828;2022-09-13T05:14:45;11.10;99.90
54409;DHT22;40315;48.620;9.828;2022-09-13T05:17:15;11.10;99.90
54409;DHT22;40315;48.620;9.828;2022-09-13T05:19:42;11.20;99.90
54409;DHT22;40315;48.620;9.828;2022-09-13T05:22:09;11.20;99.90
54409;DHT22;40315;48.620;9.828;2022-09-13T05:24:36;11.20;99.90
54409;DHT22;40315;48.620;9.828;2022-09-13T05:27:03;11.20;99.90
54409;DHT22;40315;48.620;9.828;2022-09-13T05:29:30;11.30;99.90
54409;DHT22;40315;48.620;9.828;2022-09-13T05:31:57;11.20;99.90
54409;DHT22;40315;48.620;9.828;2022-09-13T05:34:26;11.30;99.90
54409;DHT22;40315;48.620;9.828;2022-09-13T05:36:54;11.30;99.90
54409;DHT22;40315;48.620;9.828;2022-09-13T05:39:21;11.40;99.90
54409;DHT22;40315;48.620;9.828;2022-09-13T05:41:48;11.40;99.90
54409;DHT22;40315;48.620;9.828;2022-09-13T05:44:15;11.50;99.90
54409;DHT22;40315;48.620;9.828;2022-09-13T05:46:42;11.60;99.90
54409;DHT22;40315;48.620;9.828;2022-09-13T05:49:14;11.70;99.90
54409;DHT22;40315;48.620;9.828;2022-09-13T05:51:42;11.70;99.90
54409;DHT22;40315;48.620;9.828;2022-09-13T05:54:11;11.80;99.90
54409;DHT22;40315;48.620;9.828;2022-09-13T05:56:38;11.90;99.90
54409;DHT22;40315;48.620;9.828;2022-09-13T05:59:05;12.00;99.90
54409;DHT22;40315;48.620;9.828;2022-09-13T06:01:33;12.00;99.90
54409;DHT22;40315;48.620;9.828;2022-09-13T06:04:00;12.00;99.90
54409;DHT22;40315;48.620;9.828;2022-09-13T06:06:28;12.00;99.90
54409;DHT22;40315;48.620;9.828;2022-09-13T06:08:58;12.00;99.90
54409;DHT22;40315;48.620;9.828;2022-09-13T06:11:26;12.10;99.90
54409;DHT22;40315;48.620;9.828;2022-09-13T06:13:53;12.20;99.90
54409;DHT22;40315;48.620;9.828;2022-09-13T06:16:24;12.30;99.90
54409;DHT22;40315;48.620;9.828;2022-09-13T06:18:51;12.50;99.90
54409;DHT22;40315;48.620;9.828;2022-09-13T06:21:19;12.60;99.90
54409;DHT22;40315;48.620;9.828;2022-09-13T06:23:48;12.70;99.90
54409;DHT22;40315;48.620;9.828;2022-09-13T06:26:20;12.70;99.90
54409;DHT22;40315;48.620;9.828;2022-09-13T06:28:51;12.80;99.90
54409;DHT22;40315;48.620;9.828;2022-09-13T06:31:20;12.90;99.90
54409;DHT22;40315;48.620;9.828;2022-09-13T06:33:47;12.90;99.90
54409;DHT22;40315;48.620;9.828;2022-09-13T06:36:15;13.00;99.90
54409;DHT22;40315;48.620;9.828;2022-09-13T06:38:46;13.00;99.90
54409;DHT22;40315;48.620;9.828;2022-09-13T06:41:16;13.20;99.90
54409;DHT22;40315;48.620;9.828;2022-09-13T06:43:44;13.30;99.90
54409;DHT22;40315;48.620;9.828;2022-09-13T06:46:14;13.50;99.90
54409;DHT22;40315;48.620;9.828;2022-09-13T06:48:43;13.60;99.90
54409;DHT22;40315;48.620;9.828;2022-09-13T06:51:12;13.60;99.90
54409;DHT22;40315;48.620;9.828;2022-09-13T06:53:40;13.70;99.90
54409;DHT22;40315;48.620;9.828;2022-09-13T06:56:15;13.80;99.90
54409;DHT22;40315;48.620;9.828;2022-09-13T06:58:44;15.80;99.90
54409;DHT22;40315;48.620;9.828;2022-09-13T07:01:18;14.10;99.90
54409;DHT22;40315;48.620;9.828;2022-09-13T07:07:30;14.30;99.90
54409;DHT22;40315;48.620;9.828;2022-09-13T07:09:57;14.60;99.90
54409;DHT22;40315;48.620;9.828;2022-09-13T07:12:31;14.60;99.90
54409;DHT22;40315;48.620;9.828;2022-09-13T07:15:01;14.80;99.90
54409;DHT22;40315;48.620;9.828;2022-09-13T07:17:30;15.10;99.90
54409;DHT22;40315;48.620;9.828;2022-09-13T07:19:59;15.40;99.90
54409;DHT22;40315;48.620;9.828;2022-09-13T07:22:28;15.90;99.90
54409;DHT22;40315;48.620;9.828;2022-09-13T07:24:57;16.30;99.90
54409;DHT22;40315;48.620;9.828;2022-09-13T07:27:28;16.70;99.90
54409;DHT22;40315;48.620;9.828;2022-09-13T07:30:06;17.00;99.90
54409;DHT22;40315;48.620;9.828;2022-09-13T07:32:33;17.10;99.90
54409;DHT22;40315;48.620;9.828;2022-09-13T07:35:05;17.20;99.90
54409;DHT22;40315;48.620;9.828;2022-09-13T07:37:36;17.60;99.90
54409;DHT22;40315;48.620;9.828;2022-09-13T07:40:05;17.80;99.90
54409;DHT22;40315;48.620;9.828;2022-09-13T07:42:33;18.30;99.90
54409;DHT22;40315;48.620;9.828;2022-09-13T07:45:01;18.40;99.90
54409;DHT22;40315;48.620;9.828;2022-09-13T07:47:31;18.40;99.90
54409;DHT22;40315;48.620;9.828;2022-09-13T07:49:59;18.50;99.90
54409;DHT22;40315;48.620;9.828;2022-09-13T07:52:28;18.50;99.90
54409;DHT22;40315;48.620;9.828;2022-09-13T07:55:04;18.90;99.90
54409;DHT22;40315;48.620;9.828;2022-09-13T07:57:31;18.50;99.90
54409;DHT22;40315;48.620;9.828;2022-09-13T07:59:58;18.20;99.90
54409;DHT22;40315;48.620;9.828;2022-09-13T08:02:27;18.20;99.90
54409;DHT22;40315;48.620;9.828;2022-09-13T08:04:58;18.20;99.90
54409;DHT22;40315;48.620;9.828;2022-09-13T08:07:27;18.10;99.90
54409;DHT22;40315;48.620;9.828;2022-09-13T08:09:54;18.10;99.90
54409;DHT22;40315;48.620;9.828;2022-09-13T08:12:21;18.30;99.90
54409;DHT22;40315;48.620;9.828;2022-09-13T08:14:48;18.50;99.90
54409;DHT22;40315;48.620;9.828;2022-09-13T08:17:18;18.70;99.90
54409;DHT22;40315;48.620;9.828;2022-09-13T08:19:46;18.80;99.90
54409;DHT22;40315;48.620;9.828;2022-09-13T08:22:13;18.80;99.90
54409;DHT22;40315;48.620;9.828;2022-09-13T08:24:43;19.10;99.90
54409;DHT22;40315;48.620;9.828;2022-09-13T08:27:10;19.50;99.90
54409;DHT22;40315;48.620;9.828;2022-09-13T08:29:38;20.00;99.90
54409;DHT22;40315;48.620;9.828;2022-09-13T08:32:05;20.40;99.90
54409;DHT22;40315;48.620;9.828;2022-09-13T08:34:34;20.80;99.90
54409;DHT22;40315;48.620;9.828;2022-09-13T08:37:11;21.00;99.90
54409;DHT22;40315;48.620;9.828;2022-09-13T08:39:38;20.80;99.90
54409;DHT22;40315;48.620;9.828;2022-09-13T08:42:18;21.00;99.90
54409;DHT22;40315;48.620;9.828;2022-09-13T08:44:47;21.10;99.90
54409;DHT22;40315;48.620;9.828;2022-09-13T08:47:26;21.60;99.90
54409;DHT22;40315;48.620;9.828;2022-09-13T08:50:05;22.20;99.90
54409;DHT22;40315;48.620;9.828;2022-09-13T08:52:53;22.50;99.90
54409;DHT22;40315;48.620;9.828;2022-09-13T08:55:35;22.20;99.90
54409;DHT22;40315;48.620;9.828;2022-09-13T08:58:26;21.80;99.90
54409;DHT22;40315;48.620;9.828;2022-09-13T09:01:02;22.10;99.90
54409;DHT22;40315;48.620;9.828;2022-09-13T09:03:38;21.90;99.90
54409;DHT22;40315;48.620;9.828;2022-09-13T09:06:12;22.00;99.90
54409;DHT22;40315;48.620;9.828;2022-09-13T09:08:46;22.40;99.90
54409;DHT22;40315;48.620;9.828;2022-09-13T09:11:23;22.90;99.90
54409;DHT22;40315;48.620;9.828;2022-09-13T09:13:58;23.30;99.90
54409;DHT22;40315;48.620;9.828;2022-09-13T09:16:35;23.70;99.90
54409;DHT22;40315;48.620;9.828;2022-09-13T09:19:15;24.00;99.90
54409;DHT22;40315;48.620;9.828;2022-09-13T09:21:46;24.20;99.90
54409;DHT22;40315;48.620;9.828;2022-09-13T09:24:19;24.30;99.90
54409;DHT22;40315;48.620;9.828;2022-09-13T09:26:47;24.30;99.90
54409;DHT22;40315;48.620;9.828;2022-09-13T09:29:18;24.50;99.90
54409;DHT22;40315;48.620;9.828;2022-09-13T09:32:05;24.60;99.90
54409;DHT22;40315;48.620;9.828;2022-09-13T09:34:47;23.60;99.90
54409;DHT22;40315;48.620;9.828;2022-09-13T09:37:18;23.40;99.90
54409;DHT22;40315;48.620;9.828;2022-09-13T09:39:53;23.60;99.90
54409;DHT22;40315;48.620;9.828;2022-09-13T09:42:33;24.00;99.90
54409;DHT22;40315;48.620;9.828;2022-09-13T09:45:22;24.50;99.90
54409;DHT22;40315;48.620;9.828;2022-09-13T09:47:52;25.00;99.90
54409;DHT22;40315;48.620;9.828;2022-09-13T09:50:23;25.30;99.90
54409;DHT22;40315;48.620;9.828;2022-09-13T09:53:02;25.30;99.90
54409;DHT22;40315;48.620;9.828;2022-09-13T09:55:39;25.70;99.90
54409;DHT22;40315;48.620;9.828;2022-09-13T09:58:08;25.30;99.90
54409;DHT22;40315;48.620;9.828;2022-09-13T10:00:51;25.10;99.90
54409;DHT22;40315;48.620;9.828;2022-09-13T10:03:28;24.90;99.90
54409;DHT22;40315;48.620;9.828;2022-09-13T10:06:04;25.10;99.90
54409;DHT22;40315;48.620;9.828;2022-09-13T10:08:34;25.10;99.90
54409;DHT22;40315;48.620;9.828;2022-09-13T10:11:03;25.20;99.90
54409;DHT22;40315;48.620;9.828;2022-09-13T10:13:56;25.30;99.90
54409;DHT22;40315;48.620;9.828;2022-09-13T10:16:25;25.20;99.90
54409;DHT22;40315;48.620;9.828;2022-09-13T10:18:52;25.20;99.90
54409;DHT22;40315;48.620;9.828;2022-09-13T10:21:22;25.20;99.90
54409;DHT22;40315;48.620;9.828;2022-09-13T10:24:14;24.80;99.90
54409;DHT22;40315;48.620;9.828;2022-09-13T10:26:43;25.40;99.90
54409;DHT22;40315;48.620;9.828;2022-09-13T10:29:15;25.80;99.90
54409;DHT22;40315;48.620;9.828;2022-09-13T10:31:47;25.60;99.90
54409;DHT22;40315;48.620;9.828;2022-09-13T10:34:20;24.90;99.90
54409;DHT22;40315;48.620;9.828;2022-09-13T10:36:52;25.00;99.90
54409;DHT22;40315;48.620;9.828;2022-09-13T10:39:21;25.10;99.90
54409;DHT22;40315;48.620;9.828;2022-09-13T10:41:53;25.20;99.90
54409;DHT22;40315;48.620;9.828;2022-09-13T10:44:31;25.90;99.90
54409;DHT22;40315;48.620;9.828;2022-09-13T10:47:00;25.70;99.90
54409;DHT22;40315;48.620;9.828;2022-09-13T10:49:43;25.90;99.90
54409;DHT22;40315;48.620;9.828;2022-09-13T10:52:31;25.50;99.90
54409;DHT22;40315;48.620;9.828;2022-09-13T10:55:33;25.50;99.90
54409;DHT22;40315;48.620;9.828;2022-09-13T10:58:22;25.40;99.90
54409;DHT22;40315;48.620;9.828;2022-09-13T11:01:18;26.10;99.90
54409;DHT22;40315;48.620;9.828;2022-09-13T11:06:43;27.20;99.90
54409;DHT22;40315;48.620;9.828;2022-09-13T11:09:13;26.90;99.90
54409;DHT22;40315;48.620;9.828;2022-09-13T11:11:49;26.70;99.90
54409;DHT22;40315;48.620;9.828;2022-09-13T11:14:36;26.90;99.90
54409;DHT22;40315;48.620;9.828;2022-09-13T11:17:15;27.00;99.90
54409;DHT22;40315;48.620;9.828;2022-09-13T11:20:05;27.40;99.90
54409;DHT22;40315;48.620;9.828;2022-09-13T11:22:52;27.00;99.90
54409;DHT22;40315;48.620;9.828;2022-09-13T11:25:33;27.10;99.90
54409;DHT22;40315;48.620;9.828;2022-09-13T11:28:08;27.20;99.90
54409;DHT22;40315;48.620;9.828;2022-09-13T11:30:48;27.50;99.40
54409;DHT22;40315;48.620;9.828;2022-09-13T11:33:29;27.50;99.30
54409;DHT22;40315;48.620;9.828;2022-09-13T11:36:31;28.30;99.00
54409;DHT22;40315;48.620;9.828;2022-09-13T11:39:12;28.80;97.80
54409;DHT22;40315;48.620;9.828;2022-09-13T11:41:48;28.60;96.20
54409;DHT22;40315;48.620;9.828;2022-09-13T11:47:21;29.00;95.10
54409;DHT22;40315;48.620;9.828;2022-09-13T11:50:03;29.10;96.70
54409;DHT22;40315;48.620;9.828;2022-09-13T11:52:40;29.70;96.30
54409;DHT22;40315;48.620;9.828;2022-09-13T11:55:16;29.70;95.00
54409;DHT22;40315;48.620;9.828;2022-09-13T11:57:46;30.20;93.20
54409;DHT22;40315;48.620;9.828;2022-09-13T12:00:19;30.50;92.50
54409;DHT22;40315;48.620;9.828;2022-09-13T12:02:58;30.70;90.50
54409;DHT22;40315;48.620;9.828;2022-09-13T12:05:30;29.90;92.60
54409;DHT22;40315;48.620;9.828;2022-09-13T12:08:02;29.80;91.90
54409;DHT22;40315;48.620;9.828;2022-09-13T12:10:36;29.90;91.60
54409;DHT22;40315;48.620;9.828;2022-09-13T12:13:11;28.80;92.60
54409;DHT22;40315;48.620;9.828;2022-09-13T12:15:42;29.70;93.30
54409;DHT22;40315;48.620;9.828;2022-09-13T12:18:14;29.50;92.00
54409;DHT22;40315;48.620;9.828;2022-09-13T12:20:46;29.10;91.50
54409;DHT22;40315;48.620;9.828;2022-09-13T12:23:18;29.40;91.50
54409;DHT22;40315;48.620;9.828;2022-09-13T12:25:52;29.60;91.30
54409;DHT22;40315;48.620;9.828;2022-09-13T12:28:23;29.90;90.90
54409;DHT22;40315;48.620;9.828;2022-09-13T12:30:54;29.50;91.70
54409;DHT22;40315;48.620;9.828;2022-09-13T12:33:23;29.80;91.80
54409;DHT22;40315;48.620;9.828;2022-09-13T12:36:04;29.40;92.80
54409;DHT22;40315;48.620;9.828;2022-09-13T12:38:56;29.40;92.00
54409;DHT22;40315;48.620;9.828;2022-09-13T12:41:34;28.70;92.20
54409;DHT22;40315;48.620;9.828;2022-09-13T12:44:45;28.70;91.30
54409;DHT22;40315;48.620;9.828;2022-09-13T12:47:41;28.70;91.20
54409;DHT22;40315;48.620;9.828;2022-09-13T12:53:38;27.60;92.40
54409;DHT22;40315;48.620;9.828;2022-09-13T12:56:35;27.60;93.90
54409;DHT22;40315;48.620;9.828;2022-09-13T12:59:31;27.30;94.10
54409;DHT22;40315;48.620;9.828;2022-09-13T13:02:18;27.30;94.20
54409;DHT22;40315;48.620;9.828;2022-09-13T13:04:52;27.20;95.50
54409;DHT22;40315;48.620;9.828;2022-09-13T13:07:23;26.60;95.50
54409;DHT22;40315;48.620;9.828;2022-09-13T13:09:51;26.40;96.40
54409;DHT22;40315;48.620;9.828;2022-09-13T13:12:28;26.60;97.10
54409;DHT22;40315;48.620;9.828;2022-09-13T13:14:57;26.40;96.70
54409;DHT22;40315;48.620;9.828;2022-09-13T13:17:39;26.30;97.40
54409;DHT22;40315;48.620;9.828;2022-09-13T13:20:38;26.40;97.60
54409;DHT22;40315;48.620;9.828;2022-09-13T13:23:20;26.70;97.60
54409;DHT22;40315;48.620;9.828;2022-09-13T13:26:07;27.30;98.40
54409;DHT22;40315;48.620;9.828;2022-09-13T13:31:45;27.90;95.40
54409;DHT22;40315;48.620;9.828;2022-09-13T13:34:28;28.00;95.50
54409;DHT22;40315;48.620;9.828;2022-09-13T13:36:59;28.00;94.30
54409;DHT22;40315;48.620;9.828;2022-09-13T13:39:39;28.10;94.40
54409;DHT22;40315;48.620;9.828;2022-09-13T13:42:12;27.70;94.30
54409;DHT22;40315;48.620;9.828;2022-09-13T13:45:12;28.10;95.00
54409;DHT22;40315;48.620;9.828;2022-09-13T13:48:04;28.80;95.10
54409;DHT22;40315;48.620;9.828;2022-09-13T13:50:32;28.50;95.50
54409;DHT22;40315;48.620;9.828;2022-09-13T13:53:19;28.00;93.20
54409;DHT22;40315;48.620;9.828;2022-09-13T13:56:06;28.10;96.10
54409;DHT22;40315;48.620;9.828;2022-09-13T13:58:43;28.60;95.20
54409;DHT22;40315;48.620;9.828;2022-09-13T14:01:15;28.90;95.50
54409;DHT22;40315;48.620;9.828;2022-09-13T14:03:56;29.10;95.60
54409;DHT22;40315;48.620;9.828;2022-09-13T14:06:29;28.90;95.40
54409;DHT22;40315;48.620;9.828;2022-09-13T14:09:10;29.00;95.00
54409;DHT22;40315;48.620;9.828;2022-09-13T14:11:50;29.10;93.70
54409;DHT22;40315;48.620;9.828;2022-09-13T14:14:31;28.50;93.70
54409;DHT22;40315;48.620;9.828;2022-09-13T14:20:04;28.20;94.20
54409;DHT22;40315;48.620;9.828;2022-09-13T14:22:34;28.60;94.30
54409;DHT22;40315;48.620;9.828;2022-09-13T14:25:14;28.50;95.10
54409;DHT22;40315;48.620;9.828;2022-09-13T14:27:43;28.80;94.00
54409;DHT22;40315;48.620;9.828;2022-09-13T14:30:18;28.90;94.30
54409;DHT22;40315;48.620;9.828;2022-09-13T14:32:48;27.80;94.90
54409;DHT22;40315;48.620;9.828;2022-09-13T14:35:25;29.00;95.00
54409;DHT22;40315;48.620;9.828;2022-09-13T14:37:53;29.00;96.10
54409;DHT22;40315;48.620;9.828;2022-09-13T14:40:24;28.40;96.20
54409;DHT22;40315;48.620;9.828;2022-09-13T14:42:54;28.90;96.70
54409;DHT22;40315;48.620;9.828;2022-09-13T14:45:28;28.90;96.40
54409;DHT22;40315;48.620;9.828;2022-09-13T14:48:01;28.80;96.90
54409;DHT22;40315;48.620;9.828;2022-09-13T14:50:33;28.70;98.20
54409;DHT22;40315;48.620;9.828;2022-09-13T14:53:04;28.40;99.90
54409;DHT22;40315;48.620;9.828;2022-09-13T14:55:33;28.40;99.90
54409;DHT22;40315;48.620;9.828;2022-09-13T14:58:12;28.40;99.90
54409;DHT22;40315;48.620;9.828;2022-09-13T15:00:47;28.20;98.90
54409;DHT22;40315;48.620;9.828;2022-09-13T15:03:17;28.30;99.90
54409;DHT22;40315;48.620;9.828;2022-09-13T15:05:50;28.20;99.90
54409;DHT22;40315;48.620;9.828;2022-09-13T15:08:40;27.80;98.70
54409;DHT22;40315;48.620;9.828;2022-09-13T15:11:13;27.80;99.70
54409;DHT22;40315;48.620;9.828;2022-09-13T15:13:44;27.90;99.90
54409;DHT22;40315;48.620;9.828;2022-09-13T15:16:24;27.90;99.90
54409;DHT22;40315;48.620;9.828;2022-09-13T15:19:16;27.70;99.90
54409;DHT22;40315;48.620;9.828;2022-09-13T15:21:43;27.60;99.90
54409;DHT22;40315;48.620;9.828;2022-09-13T15:24:20;27.70;99.90
54409;DHT22;40315;48.620;9.828;2022-09-13T15:26:48;27.70;99.90
54409;DHT22;40315;48.620;9.828;2022-09-13T15:29:20;27.50;99.90
54409;DHT22;40315;48.620;9.828;2022-09-13T15:31:47;27.30;99.90
54409;DHT22;40315;48.620;9.828;2022-09-13T15:34:22;27.00;99.90
54409;DHT22;40315;48.620;9.828;2022-09-13T15:37:06;27.00;99.90
54409;DHT22;40315;48.620;9.828;2022-09-13T15:39:42;27.00;99.90
54409;DHT22;40315;48.620;9.828;2022-09-13T15:42:13;26.90;99.90
54409;DHT22;40315;48.620;9.828;2022-09-13T15:44:44;26.70;99.90
54409;DHT22;40315;48.620;9.828;2022-09-13T15:47:15;26.50;99.90
54409;DHT22;40315;48.620;9.828;2022-09-13T15:49:47;26.30;99.90
54409;DHT22;40315;48.620;9.828;2022-09-13T15:52:17;25.90;99.90
54409;DHT22;40315;48.620;9.828;2022-09-13T15:54:48;25.70;99.90
54409;DHT22;40315;48.620;9.828;2022-09-13T15:57:18;25.60;99.90
54409;DHT22;40315;48.620;9.828;2022-09-13T15:59:48;25.40;99.90
54409;DHT22;40315;48.620;9.828;2022-09-13T16:02:19;25.30;99.90
54409;DHT22;40315;48.620;9.828;2022-09-13T16:04:47;25.30;99.90
54409;DHT22;40315;48.620;9.828;2022-09-13T16:07:14;25.00;99.90
54409;DHT22;40315;48.620;9.828;2022-09-13T16:09:47;24.90;99.90
54409;DHT22;40315;48.620;9.828;2022-09-13T16:12:17;24.90;99.90
54409;DHT22;40315;48.620;9.828;2022-09-13T16:14:48;24.90;99.90
54409;DHT22;40315;48.620;9.828;2022-09-13T16:17:19;24.90;99.90
54409;DHT22;40315;48.620;9.828;2022-09-13T16:19:47;24.90;99.90
54409;DHT22;40315;48.620;9.828;2022-09-13T16:22:18;24.90;99.90
54409;DHT22;40315;48.620;9.828;2022-09-13T16:24:47;24.90;99.90
54409;DHT22;40315;48.620;9.828;2022-09-13T16:27:16;24.80;99.90
54409;DHT22;40315;48.620;9.828;2022-09-13T16:29:45;24.70;99.90
54409;DHT22;40315;48.620;9.828;2022-09-13T16:32:14;24.70;99.90
54409;DHT22;40315;48.620;9.828;2022-09-13T16:34:43;24.50;99.90
54409;DHT22;40315;48.620;9.828;2022-09-13T16:37:13;24.50;99.90
54409;DHT22;40315;48.620;9.828;2022-09-13T16:39:40;24.40;99.90
54409;DHT22;40315;48.620;9.828;2022-09-13T16:42:10;24.40;99.90